Riberalta, Riberalta Airport (SLRI)

NameRiberalta Airport
CityRiberalta
CountryBolivia
ICAOSLRI
IATARIB
Altitude141 m
CoordinatesGoogle Map
Live Air TrafficLiveATC.net
METARSLRI 121700Z 06008KT 5000 TS VCSH BKN017 FEW020CB BKN200 30/25 Q1009
2018-11-12 17:00:00 Wind: Northeast (60°) 4.12 m/s - Visibility: 5000 m - Weather: Thunderstorm / Vicinity Showers - Temperature: 30 °C - Dew point: 25 °C - Humidity: 74.6% - Pressure: 1009 hPa
Statistics

The table below shows the detailed information of all flights to/from Riberalta, Riberalta Airport (SLRI).